Time;durP1;ratioP1;P1;durP2;ratioP2;P2;SDS_P1;SDS_P2;PMS_P1;PMS_P2;Temp;Humidity;BMP_temperature;BMP_pressure;BME280_temperature;BME280_humidity;BME280_pressure;Samples;Min_cycle;Max_cycle;Signal;HPM_P1;HPM_P2
2022/06/23 00:01:00;;;;;;;13.23;12.07;;;19.90;99.90;;;20.63;100.00;97590.44;5200069;28;20240;-60
2022/06/23 00:03:36;;;;;;;12.30;11.00;;;19.90;99.90;;;20.62;100.00;97586.09;5205410;28;20225;-62
2022/06/23 00:06:27;;;;;;;10.70;9.80;;;19.90;99.90;;;20.62;100.00;97586.09;5200898;28;20196;-62
2022/06/23 00:09:01;;;;;;;11.38;10.27;;;19.90;99.90;;;20.66;100.00;97582.69;5198970;28;20295;-60
2022/06/23 00:11:35;;;;;;;11.88;10.77;;;19.90;99.90;;;20.65;100.00;97580.06;5203154;28;20237;-60
2022/06/23 00:14:14;;;;;;;12.50;10.95;;;19.90;99.90;;;20.64;100.00;97574.00;5196981;28;20208;-61
2022/06/23 00:16:47;;;;;;;11.70;10.57;;;19.90;99.90;;;20.65;100.00;97570.53;5198009;28;20189;-59
2022/06/23 00:19:21;;;;;;;12.18;11.18;;;19.90;99.90;;;20.63;100.00;97561.88;5197205;28;20218;-60
2022/06/23 00:21:55;;;;;;;11.02;10.13;;;19.90;99.90;;;20.64;100.00;97558.41;5197817;28;20232;-60
2022/06/23 00:24:28;;;;;;;11.95;10.93;;;19.90;99.90;;;20.63;100.00;97560.97;5196442;28;20609;-59
2022/06/23 00:27:02;;;;;;;11.07;10.18;;;19.90;99.90;;;20.63;100.00;97569.69;5203074;28;20714;-61
2022/06/23 00:29:36;;;;;;;10.77;9.85;;;19.90;99.90;;;20.60;100.00;97571.34;5203996;28;20636;-61
2022/06/23 00:32:11;;;;;;;11.38;10.27;;;19.80;99.90;;;20.58;100.00;97571.34;5201598;28;20453;-61
2022/06/23 00:34:53;;;;;;;11.13;9.98;;;19.80;99.90;;;20.51;100.00;97574.66;5197442;28;20288;-61
2022/06/23 00:37:27;;;;;;;10.85;9.57;;;19.80;99.90;;;20.51;100.00;97569.47;5198257;28;20198;-62
2022/06/23 00:40:06;;;;;;;10.57;9.43;;;19.70;99.90;;;20.50;100.00;97570.31;5198651;28;20198;-61
2022/06/23 00:42:48;;;;;;;9.95;9.02;;;19.70;99.90;;;20.46;100.00;97571.16;5202835;28;20671;-60
2022/06/23 00:45:30;;;;;;;10.65;9.63;;;19.70;99.90;;;20.49;100.00;97563.41;5198441;28;20623;-60
2022/06/23 00:48:12;;;;;;;11.63;10.15;;;19.70;99.90;;;20.46;100.00;97564.22;5196327;28;20571;-62
2022/06/23 00:50:50;;;;;;;11.52;10.55;;;19.70;99.90;;;20.39;100.00;97566.72;5195655;28;20724;-61
2022/06/23 00:53:31;;;;;;;11.23;10.23;;;19.60;99.90;;;20.40;100.00;97564.16;5198741;28;20260;-60
2022/06/23 00:56:18;;;;;;;12.50;11.45;;;19.60;99.90;;;20.29;100.00;97570.03;5200101;28;20252;-61
2022/06/23 00:58:58;;;;;;;13.07;11.77;;;19.50;99.90;;;20.27;100.00;97567.41;5200890;28;20218;-61
2022/06/23 01:01:43;;;;;;;12.18;11.07;;;19.50;99.90;;;20.21;100.00;97576.00;5199840;28;20241;-60
2022/06/23 01:04:28;;;;;;;11.70;10.75;;;19.40;99.90;;;20.12;100.00;97572.41;5197914;28;20194;-59
2022/06/23 01:07:06;;;;;;;11.13;10.02;;;19.30;99.90;;;20.00;100.00;97573.06;5199575;28;20293;-59
2022/06/23 01:09:47;;;;;;;13.27;10.55;;;19.30;99.90;;;20.09;100.00;97573.22;5195722;28;20303;-60
2022/06/23 01:12:30;;;;;;;11.68;9.82;;;19.20;99.90;;;20.00;100.00;97575.66;5201287;28;20197;-60
2022/06/23 01:15:20;;;;;;;11.55;10.45;;;19.20;99.90;;;19.91;100.00;97581.56;5199406;28;20203;-60
2022/06/23 01:18:02;;;;;;;11.38;10.13;;;19.20;99.90;;;19.82;100.00;97588.34;5199342;28;20229;-60
2022/06/23 01:20:48;;;;;;;9.85;8.95;;;19.10;99.90;;;19.80;100.00;97594.41;5198778;28;20229;-60
2022/06/23 01:23:57;;;;;;;10.73;9.65;;;19.10;99.90;;;19.75;100.00;97596.03;5199895;28;20636;-59
2022/06/23 01:27:01;;;;;;;10.35;9.35;;;19.10;99.90;;;19.75;100.00;97595.16;5194418;28;20245;-59
2022/06/23 01:29:41;;;;;;;10.63;9.20;;;19.00;99.90;;;19.70;100.00;97600.25;5190560;28;20220;-59
2022/06/23 01:32:20;;;;;;;11.52;9.18;;;19.00;99.90;;;19.73;100.00;97594.25;5198018;28;20209;-60
2022/06/23 01:34:59;;;;;;;10.07;8.95;;;19.00;99.90;;;19.69;100.00;97587.28;5195269;28;20214;-60
2022/06/23 01:37:41;;;;;;;11.35;9.70;;;19.00;99.90;;;19.62;100.00;97594.03;5195949;28;20248;-59
2022/06/23 01:40:20;;;;;;;10.30;8.90;;;18.90;99.90;;;19.50;100.00;97589.53;5195208;28;20264;-60
2022/06/23 01:43:00;;;;;;;10.02;9.07;;;18.90;99.90;;;19.43;100.00;97591.97;5195447;28;20194;-59
2022/06/23 01:45:43;;;;;;;9.00;7.63;;;18.80;99.90;;;19.49;100.00;97594.69;5197580;28;20202;-58
2022/06/23 01:48:51;;;;;;;10.50;8.30;;;18.80;99.90;;;19.42;100.00;97596.28;5198498;28;20253;-59
2022/06/23 01:51:24;;;;;;;9.65;7.70;;;18.70;99.90;;;19.38;100.00;97593.63;5198571;28;20234;-60
2022/06/23 01:54:13;;;;;;;12.43;8.23;;;18.70;99.90;;;19.33;100.00;97591.81;5189130;28;20233;-60
2022/06/23 01:56:56;;;;;;;9.25;7.40;;;18.70;99.90;;;19.32;100.00;97590.06;5193276;28;20281;-60
2022/06/23 01:59:48;;;;;;;10.75;7.75;;;18.70;99.90;;;19.32;100.00;97597.84;5199733;28;20687;-60
2022/06/23 02:02:46;;;;;;;8.30;6.72;;;18.70;99.90;;;19.30;100.00;97602.13;5201273;28;20202;-60
2022/06/23 02:05:36;;;;;;;7.50;6.75;;;18.60;99.90;;;19.30;100.00;97607.31;5198604;28;20199;-60
2022/06/23 02:08:33;;;;;;;7.55;6.80;;;18.60;99.90;;;19.32;100.00;97618.59;5197352;28;20229;-60
2022/06/23 02:11:13;;;;;;;7.93;6.32;;;18.60;99.90;;;19.34;100.00;97616.91;5199431;28;20226;-60
2022/06/23 02:13:52;;;;;;;7.38;6.60;;;18.60;99.90;;;19.34;100.00;97611.72;5197350;28;20257;-60
2022/06/23 02:16:32;;;;;;;10.55;7.22;;;18.60;99.90;;;19.32;100.00;97607.34;5194467;28;20193;-60
2022/06/23 02:19:18;;;;;;;7.78;6.35;;;18.60;99.90;;;19.20;100.00;97613.19;5199821;28;20238;-62
2022/06/23 02:21:58;;;;;;;7.18;5.88;;;18.50;99.90;;;19.19;100.00;97606.22;5196923;28;20202;-59
2022/06/23 02:24:35;;;;;;;8.80;6.00;;;18.50;99.90;;;19.18;100.00;97603.63;5195941;28;20268;-59
2022/06/23 02:27:33;;;;;;;9.07;6.78;;;18.50;99.90;;;19.10;100.00;97606.94;5195406;28;20202;-59
2022/06/23 02:30:14;;;;;;;8.18;6.05;;;18.40;99.90;;;19.07;100.00;97606.00;5194199;28;20346;-59
2022/06/23 02:33:00;;;;;;;13.57;7.55;;;18.40;99.90;;;19.02;100.00;97597.25;5197240;28;20230;-60
2022/06/23 02:35:43;;;;;;;8.73;6.60;;;18.30;99.90;;;19.01;100.00;97596.41;5193988;28;20622;-60
2022/06/23 02:38:25;;;;;;;8.43;6.35;;;18.30;99.90;;;18.92;100.00;97592.75;5196751;28;20726;-60
2022/06/23 02:41:08;;;;;;;7.65;6.90;;;18.20;99.90;;;18.92;100.00;97591.03;5195179;28;20201;-60
2022/06/23 02:43:46;;;;;;;11.30;6.85;;;18.30;99.90;;;18.90;100.00;97597.91;5190924;28;20245;-58
2022/06/23 02:47:02;;;;;;;8.13;6.80;;;18.20;99.90;;;18.88;100.00;97594.38;5197218;28;20327;-60
2022/06/23 02:50:04;;;;;;;8.27;6.55;;;18.20;99.90;;;18.87;100.00;97593.53;5193012;28;20261;-60
2022/06/23 02:53:05;;;;;;;7.68;6.88;;;18.20;99.90;;;18.77;100.00;97601.97;5196846;28;20228;-60
2022/06/23 02:56:12;;;;;;;7.68;6.80;;;18.20;99.90;;;18.84;100.00;97609.00;5197918;28;20632;-60
2022/06/23 02:58:51;;;;;;;8.15;6.50;;;18.20;99.90;;;18.79;100.00;97614.94;5198186;28;20225;-60
2022/06/23 03:01:30;;;;;;;7.00;6.25;;;18.20;99.90;;;18.84;100.00;97619.34;5202416;28;20239;-59
2022/06/23 03:04:15;;;;;;;6.90;6.10;;;18.20;99.90;;;18.87;100.00;97615.97;5202205;28;20197;-59
2022/06/23 03:06:55;;;;;;;6.13;5.60;;;18.20;99.90;;;18.86;100.00;97617.69;5198156;28;20202;-60
2022/06/23 03:09:36;;;;;;;9.27;6.50;;;18.20;99.90;;;18.85;100.00;97618.50;5201429;28;20233;-59
2022/06/23 03:12:15;;;;;;;7.15;6.32;;;18.20;99.90;;;18.82;100.00;97617.56;5198977;28;20272;-59
2022/06/23 03:14:55;;;;;;;8.05;6.38;;;18.20;99.90;;;18.78;100.00;97616.66;5199370;28;20597;-60
2022/06/23 03:17:38;;;;;;;7.55;6.25;;;18.10;99.90;;;18.80;100.00;97629.63;5202136;28;20224;-59
2022/06/23 03:20:22;;;;;;;7.53;5.68;;;18.10;99.90;;;18.80;100.00;97645.16;5198414;28;20198;-60
2022/06/23 03:23:00;;;;;;;8.07;5.93;;;18.10;99.90;;;18.80;100.00;97638.28;5197044;28;20559;-60
2022/06/23 03:25:41;;;;;;;6.88;5.60;;;18.10;99.90;;;18.75;100.00;97636.44;5198855;28;21011;-59
2022/06/23 03:28:21;;;;;;;6.18;5.50;;;18.10;99.90;;;18.78;100.00;97633.91;5201029;28;20256;-60
2022/06/23 03:31:01;;;;;;;8.50;5.78;;;18.10;99.90;;;18.82;100.00;97641.75;5198645;28;20666;-59
2022/06/23 03:33:41;;;;;;;8.27;6.80;;;18.10;99.90;;;18.85;100.00;97635.78;5196224;28;20194;-60
2022/06/23 03:36:24;;;;;;;6.97;5.80;;;18.10;99.90;;;18.85;100.00;97630.59;5196049;28;20197;-60
2022/06/23 03:42:07;;;;;;;7.63;5.85;;;18.20;99.90;;;18.88;100.00;97638.41;5195438;28;20240;-59
2022/06/23 03:44:51;;;;;;;7.68;5.97;;;18.20;99.90;;;18.93;100.00;97642.00;5195261;28;20256;-60
2022/06/23 03:47:31;;;;;;;6.55;5.60;;;18.30;99.90;;;18.96;100.00;97647.22;5192292;28;20686;-60
2022/06/23 03:50:18;;;;;;;6.50;5.90;;;18.20;99.90;;;18.99;99.61;97649.00;5192655;28;20195;-60
2022/06/23 03:52:57;;;;;;;7.55;5.68;;;18.20;99.90;;;19.02;99.78;97649.06;5195734;28;20257;-60
2022/06/23 03:55:37;;;;;;;8.60;5.60;;;18.30;99.90;;;19.01;99.55;97657.69;5194903;28;20592;-60
2022/06/23 03:58:18;;;;;;;6.70;5.50;;;18.30;99.90;;;19.02;99.48;97664.63;5200682;28;20267;-60
2022/06/23 04:01:03;;;;;;;6.45;5.50;;;18.30;99.90;;;19.08;99.36;97667.31;5196304;28;20206;-59
2022/06/23 04:03:44;;;;;;;6.00;5.13;;;18.30;99.90;;;19.13;99.03;97671.75;5196889;28;20201;-60
2022/06/23 04:06:35;;;;;;;6.32;5.72;;;18.40;99.90;;;19.17;99.25;97669.22;5196688;28;20217;-60
2022/06/23 04:09:15;;;;;;;8.43;6.20;;;18.50;99.90;;;19.20;99.38;97667.59;5197708;28;20958;-60
2022/06/23 04:12:01;;;;;;;7.18;5.53;;;18.50;99.90;;;19.21;99.44;97671.06;5200674;28;20202;-60
2022/06/23 04:14:51;;;;;;;7.45;5.43;;;18.50;99.90;;;19.31;98.27;97663.47;5198224;28;20226;-60
2022/06/23 04:17:32;;;;;;;6.72;5.70;;;18.60;99.90;;;19.36;98.19;97664.44;5192426;28;20202;-59
2022/06/23 04:20:15;;;;;;;7.38;5.78;;;18.60;99.90;;;19.38;98.72;97668.78;5200335;28;20205;-59
2022/06/23 04:22:58;;;;;;;6.65;6.03;;;18.70;99.90;;;19.39;98.88;97671.41;5191784;28;20187;-60
2022/06/23 04:25:47;;;;;;;6.32;5.68;;;18.70;99.90;;;19.45;97.81;97662.88;5198246;28;20198;-59
2022/06/23 04:28:25;;;;;;;7.03;6.10;;;18.80;99.90;;;19.49;97.15;97662.97;5201514;28;20619;-59
2022/06/23 04:31:03;;;;;;;6.82;5.80;;;18.80;99.90;;;19.52;97.41;97659.56;5191945;28;20583;-59
2022/06/23 04:33:39;;;;;;;6.68;5.32;;;18.80;99.90;;;19.63;97.67;97660.63;5195061;28;20202;-60
2022/06/23 04:36:22;;;;;;;6.90;5.68;;;18.90;99.90;;;19.77;97.41;97661.78;5192958;28;20268;-59
2022/06/23 04:39:02;;;;;;;7.80;5.68;;;19.10;99.90;;;19.94;96.33;97658.59;5195924;28;20222;-59
2022/06/23 04:41:42;;;;;;;6.20;5.60;;;19.20;99.90;;;19.97;95.04;97654.34;5190861;28;20202;-59
2022/06/23 04:44:19;;;;;;;7.35;5.80;;;19.20;99.90;;;20.09;95.09;97656.25;5194170;28;20272;-59
2022/06/23 04:46:58;;;;;;;7.88;6.20;;;19.30;99.90;;;20.28;94.22;97657.41;5199237;28;20233;-60
2022/06/23 04:49:38;;;;;;;6.22;5.28;;;19.60;99.90;;;20.68;92.90;97647.63;5199505;28;20218;-57
2022/06/23 04:52:19;;;;;;;6.15;5.28;;;20.00;99.90;;;21.09;89.30;97645.59;5201819;28;20257;-59
2022/06/23 04:54:58;;;;;;;5.50;4.90;;;20.50;99.90;;;21.87;86.12;97644.69;5196756;28;20218;-59
2022/06/23 04:57:43;;;;;;;6.00;4.70;;;21.10;99.90;;;22.34;82.21;97650.28;5205130;28;20630;-59
2022/06/23 05:00:23;;;;;;;5.97;5.35;;;21.40;99.90;;;22.45;80.66;97648.63;5199053;28;20231;-59
2022/06/23 05:03:05;;;;;;;6.65;5.03;;;21.30;99.90;;;22.32;80.78;97646.81;5197619;28;20236;-57
2022/06/23 05:05:38;;;;;;;6.25;5.00;;;21.20;99.90;;;22.10;81.24;97644.88;5199597;28;20289;-59
2022/06/23 05:08:23;;;;;;;5.85;4.88;;;21.00;99.90;;;21.85;82.30;97655.06;5199198;28;20249;-55
2022/06/23 05:11:06;;;;;;;5.53;4.95;;;20.80;99.90;;;21.57;84.48;97659.13;5200800;28;20198;-58
2022/06/23 05:13:45;;;;;;;5.05;4.38;;;20.60;99.90;;;21.63;85.18;97660.91;5198587;28;20241;-59
2022/06/23 05:16:24;;;;;;;7.90;5.20;;;20.60;99.90;;;21.84;85.17;97655.94;5196368;28;20209;-59
2022/06/23 05:19:10;;;;;;;5.68;5.18;;;21.00;99.90;;;22.20;83.66;97657.13;5191606;28;20214;-60
2022/06/23 05:21:47;;;;;;;5.72;5.13;;;21.30;99.90;;;22.40;82.10;97655.53;5202479;28;20247;-59
2022/06/23 05:24:23;;;;;;;6.45;4.65;;;21.30;99.90;;;22.60;80.79;97660.00;5198699;28;20678;-59
2022/06/23 05:27:00;;;;;;;6.47;5.63;;;21.50;99.90;;;22.47;81.14;97662.56;5202538;28;20712;-60
2022/06/23 05:29:38;;;;;;;6.53;4.60;;;21.40;99.90;;;22.44;81.45;97667.75;5199502;28;20714;-59
2022/06/23 05:32:17;;;;;;;5.82;5.15;;;21.40;99.90;;;22.48;81.38;97669.50;5194886;28;20198;-59
2022/06/23 05:35:01;;;;;;;6.22;5.50;;;21.40;99.90;;;22.87;80.54;97660.19;5201181;28;20537;-60
2022/06/23 05:37:42;;;;;;;6.05;5.45;;;21.80;99.90;;;23.47;78.26;97670.88;5202363;28;20198;-60
2022/06/23 05:40:25;;;;;;;6.15;5.53;;;22.40;99.90;;;24.11;74.87;97670.13;5192273;28;20206;-60
2022/06/23 05:43:01;;;;;;;6.55;5.40;;;23.00;99.90;;;24.57;71.84;97664.91;5201881;28;20308;-59
2022/06/23 05:45:40;;;;;;;6.32;5.32;;;23.50;99.90;;;24.91;71.95;97670.06;5202561;28;20639;-59
2022/06/23 05:48:20;;;;;;;7.30;5.80;;;23.70;99.90;;;24.91;71.82;97665.69;5199796;28;20217;-60
2022/06/23 05:51:07;;;;;;;7.30;5.93;;;23.90;99.90;;;25.45;70.29;97668.13;5188492;28;20596;-60
2022/06/23 05:53:48;;;;;;;11.23;7.38;;;24.20;99.90;;;25.91;67.23;97670.50;5189935;28;20201;-60
2022/06/23 05:56:29;;;;;;;10.05;7.55;;;24.70;99.90;;;26.43;66.19;97670.06;5200229;28;20282;-60
2022/06/23 05:59:10;;;;;;;9.55;7.80;;;25.00;99.90;;;26.79;64.45;97668.03;5196290;28;20260;-60
2022/06/23 06:01:53;;;;;;;11.40;9.27;;;25.40;99.90;;;27.20;61.85;97677.19;5197357;28;20201;-59
2022/06/23 06:04:32;;;;;;;10.52;8.50;;;25.60;99.90;;;27.48;60.92;97679.50;5200390;28;20675;-60
2022/06/23 06:07:07;;;;;;;10.93;8.95;;;25.70;99.90;;;27.18;62.17;97674.63;5192915;28;20190;-60
2022/06/23 06:09:40;;;;;;;12.95;9.77;;;25.50;99.90;;;27.72;59.66;97670.38;5196306;28;20295;-60
2022/06/23 06:12:19;;;;;;;10.57;9.40;;;25.90;99.90;;;27.98;58.35;97673.53;5198268;28;20252;-60
2022/06/23 06:14:58;;;;;;;12.75;9.93;;;26.00;99.90;;;28.14;57.07;97679.41;5196123;28;20221;-60
2022/06/23 06:17:35;;;;;;;13.95;9.43;;;26.10;99.90;;;28.39;56.24;97671.13;5194016;28;20198;-60
2022/06/23 06:20:11;;;;;;;13.63;9.35;;;26.20;99.90;;;28.55;56.23;97674.38;5192900;28;20194;-60
2022/06/23 06:22:59;;;;;;;14.55;9.13;;;26.40;99.90;;;28.57;55.91;97677.88;5199607;28;20223;-61
2022/06/23 06:25:36;;;;;;;11.68;7.93;;;26.60;99.90;;;28.99;54.87;97670.94;5192186;28;20226;-60
2022/06/23 06:28:17;;;;;;;12.57;9.05;;;26.70;99.90;;;28.71;55.55;97676.72;5201767;28;20754;-60
2022/06/23 06:30:59;;;;;;;11.77;8.88;;;26.50;99.90;;;29.07;54.39;97676.94;5202129;28;20720;-60
2022/06/23 06:33:47;;;;;;;12.02;8.75;;;26.60;99.90;;;29.30;52.92;97671.22;5200842;28;20205;-61
2022/06/23 06:36:32;;;;;;;11.20;8.80;;;26.80;99.90;;;29.54;52.25;97672.44;5197100;28;20578;-60
2022/06/23 06:39:13;;;;;;;9.95;8.27;;;27.20;99.90;;;29.90;51.93;97677.81;5192244;28;20218;-60
2022/06/23 06:41:50;;;;;;;12.13;8.65;;;27.30;99.90;;;29.90;51.41;97671.69;5197885;28;20209;-61
2022/06/23 06:44:24;;;;;;;14.23;10.02;;;27.40;99.90;;;30.17;50.48;97670.16;5196368;28;20224;-61
2022/06/23 06:46:57;;;;;;;11.35;8.35;;;27.70;99.90;;;30.47;50.22;97677.31;5195322;28;20206;-60
2022/06/23 06:49:32;;;;;;;13.07;9.15;;;28.00;99.90;;;30.85;49.94;97677.25;5194598;28;20640;-61
2022/06/23 06:52:06;;;;;;;11.52;8.70;;;28.50;99.90;;;30.96;49.10;97678.72;5191391;28;20256;-61
2022/06/23 06:54:45;;;;;;;11.25;7.70;;;28.90;99.30;;;30.86;48.14;97677.22;5197272;28;20255;-61
2022/06/23 06:57:25;;;;;;;11.52;6.60;;;28.60;98.30;;;31.26;45.90;97677.91;5191259;28;20237;-61
2022/06/23 07:00:05;;;;;;;10.07;7.60;;;29.00;96.80;;;31.28;47.00;97684.88;5199231;28;20217;-61
2022/06/23 07:02:45;;;;;;;11.13;8.32;;;29.00;97.60;;;31.36;46.74;97679.38;5193961;28;20309;-60
2022/06/23 07:05:26;;;;;;;12.05;8.15;;;29.10;97.30;;;31.58;46.35;97687.53;5195516;28;20212;-60
2022/06/23 07:08:06;;;;;;;11.32;7.90;;;29.10;97.40;;;31.73;46.11;97684.41;5188373;28;20707;-60
2022/06/23 07:10:47;;;;;;;10.93;7.88;;;29.40;97.00;;;31.78;45.58;97685.16;5198552;28;20193;-61
2022/06/23 07:13:26;;;;;;;11.70;7.82;;;29.50;96.20;;;32.11;44.20;97682.41;5196089;28;20260;-61
2022/06/23 07:16:05;;;;;;;12.05;8.15;;;29.70;95.80;;;31.97;44.91;97682.84;5200857;28;20252;-60
2022/06/23 07:18:45;;;;;;;10.85;7.93;;;29.70;95.90;;;32.21;45.73;97681.19;5193276;28;20249;-61
2022/06/23 07:21:22;;;;;;;9.85;7.65;;;29.70;96.60;;;32.52;44.51;97672.25;5198468;28;20247;-61
2022/06/23 07:24:03;;;;;;;11.07;7.95;;;30.20;95.90;;;32.47;44.12;97672.41;5190234;28;20198;-61
2022/06/23 07:26:46;;;;;;;11.23;8.50;;;30.20;95.00;;;32.38;44.28;97675.31;5192631;28;20225;-61
2022/06/23 07:29:33;;;;;;;12.93;8.77;;;29.80;95.70;;;31.75;45.83;97669.38;5203818;28;20221;-60
2022/06/23 07:32:15;;;;;;;10.90;8.52;;;29.00;96.70;;;31.24;47.27;97670.00;5196358;28;20639;-60
2022/06/23 07:34:54;;;;;;;12.65;8.77;;;28.30;97.90;;;30.57;49.13;97669.19;5197518;28;20255;-60
2022/06/23 07:37:33;;;;;;;13.13;8.35;;;27.80;99.30;;;30.11;50.03;97670.31;5199603;28;20263;-60
2022/06/23 07:40:11;;;;;;;12.48;9.00;;;27.60;99.40;;;29.69;50.97;97665.16;5196727;28;20197;-60
2022/06/23 07:42:53;;;;;;;13.68;9.35;;;27.20;99.50;;;28.99;53.74;97665.69;5195889;28;20724;-60
2022/06/23 07:45:32;;;;;;;15.68;10.27;;;26.80;99.90;;;28.42;54.28;97671.13;5192089;28;20692;-60
2022/06/23 07:48:06;;;;;;;10.70;9.43;;;26.50;99.90;;;28.22;54.66;97672.28;5194920;28;20690;-60
2022/06/23 07:50:39;;;;;;;11.18;8.48;;;26.20;99.90;;;28.14;54.96;97668.03;5188654;28;20256;-58
2022/06/23 07:53:20;;;;;;;12.85;8.00;;;26.10;99.90;;;28.05;55.13;97659.41;5195343;28;20226;-59
2022/06/23 07:55:53;;;;;;;13.82;9.32;;;26.20;99.90;;;27.72;56.36;97663.38;5193849;28;20612;-60
2022/06/23 07:58:31;;;;;;;17.20;13.02;;;26.10;99.90;;;28.01;56.62;97667.34;5192819;28;20218;-60
2022/06/23 08:01:11;;;;;;;18.33;13.57;;;26.30;99.90;;;28.22;56.45;97659.13;5193872;28;20229;-60
2022/06/23 08:03:56;;;;;;;16.38;13.48;;;26.40;99.90;;;28.55;55.81;97664.72;5196147;28;20611;-60
2022/06/23 08:06:30;;;;;;;19.08;13.88;;;26.60;99.90;;;29.26;54.08;97652.88;5198111;28;20226;-60
2022/06/23 08:09:16;;;;;;;17.25;12.57;;;27.30;99.90;;;30.16;51.87;97655.22;5200352;28;20230;-60
2022/06/23 08:14:51;;;;;;;15.40;11.88;;;28.80;98.70;;;31.63;47.97;97653.91;5184698;28;20201;-61
2022/06/23 08:17:23;;;;;;;14.90;11.60;;;29.30;97.80;;;31.86;46.78;97651.41;5193542;28;20550;-61
2022/06/23 08:20:01;;;;;;;13.20;11.40;;;29.50;97.40;;;31.68;46.05;97652.00;5196151;28;20224;-61
2022/06/23 08:22:39;;;;;;;15.27;12.43;;;29.30;96.70;;;30.90;47.74;97646.31;5203636;28;20197;-60
2022/06/23 08:25:16;;;;;;;15.35;11.27;;;28.60;97.30;;;29.83;51.48;97636.69;5189525;28;20252;-60
2022/06/23 08:27:55;;;;;;;15.07;11.32;;;28.10;98.80;;;29.53;52.00;97636.47;5204020;28;20209;-60
2022/06/23 08:30:29;;;;;;;14.00;11.15;;;27.70;98.90;;;29.14;52.70;97643.47;5194093;28;20264;-60
2022/06/23 08:33:03;;;;;;;13.85;10.20;;;27.70;98.90;;;29.77;52.06;97650.03;5203043;28;20221;-60
2022/06/23 08:35:43;;;;;;;16.95;11.32;;;28.30;98.90;;;29.88;49.52;97640.09;5200625;28;20228;-59
2022/06/23 08:38:22;;;;;;;13.15;9.75;;;28.80;96.10;;;30.43;48.87;97640.53;5198647;28;20678;-60
2022/06/23 08:41:22;;;;;;;13.45;10.65;;;29.20;95.80;;;30.71;46.46;97651.22;5192117;28;20186;-58
2022/06/23 08:44:24;;;;;;;14.77;10.95;;;29.60;94.20;;;30.93;46.33;97630.38;5192396;28;20225;-60
2022/06/23 08:47:05;;;;;;;15.77;11.60;;;29.80;94.30;;;30.75;47.99;97626.47;5202355;28;20198;-60
2022/06/23 08:49:42;;;;;;;14.05;11.55;;;29.70;95.00;;;30.87;47.52;97626.16;5199546;28;20217;-59
2022/06/23 08:52:23;;;;;;;13.65;10.43;;;29.90;94.30;;;30.72;47.36;97623.91;5199822;28;20701;-58
2022/06/23 08:55:03;;;;;;;16.20;11.32;;;29.90;94.00;;;31.11;46.73;97615.81;5200205;28;20224;-60
2022/06/23 08:57:46;;;;;;;16.42;11.40;;;30.20;94.10;;;31.36;46.76;97623.91;5203164;28;20578;-60
2022/06/23 09:00:30;;;;;;;20.02;11.65;;;30.50;93.30;;;31.05;45.47;97619.50;5191139;28;20256;-60
2022/06/23 09:03:12;;;;;;;14.90;12.10;;;30.10;92.80;;;31.01;46.79;97616.97;5196047;28;20191;-60
2022/06/23 09:05:54;;;;;;;17.30;11.63;;;30.10;93.90;;;31.05;46.52;97623.91;5199824;28;20623;-60
2022/06/23 09:08:35;;;;;;;17.38;12.93;;;30.10;93.50;;;30.77;46.82;97619.38;5200953;28;20288;-61
2022/06/23 09:11:38;;;;;;;16.50;13.07;;;29.80;93.70;;;31.13;48.04;97606.91;5200636;28;20203;-61
2022/06/23 09:14:50;;;;;;;16.73;12.45;;;30.20;94.70;;;30.97;46.39;97617.06;5196617;28;20744;-60
2022/06/23 09:17:41;;;;;;;14.35;12.20;;;30.20;93.00;;;30.80;46.70;97614.03;5197905;28;20237;-60
2022/06/23 09:20:39;;;;;;;16.17;11.82;;;29.90;93.20;;;30.46;46.96;97609.66;5197684;28;20190;-61
2022/06/23 09:23:37;;;;;;;16.10;11.55;;;29.60;93.40;;;30.42;46.12;97589.53;5194906;28;20202;-59
2022/06/23 09:26:22;;;;;;;15.25;10.32;;;29.30;93.00;;;30.41;46.97;97595.72;5196533;28;20193;-59
2022/06/23 09:28:58;;;;;;;16.10;12.32;;;29.30;93.50;;;30.09;48.21;97594.75;5196967;28;20245;-61
2022/06/23 09:31:48;;;;;;;16.08;10.88;;;29.20;94.10;;;30.22;48.51;97586.56;5203088;28;20645;-60
2022/06/23 09:34:46;;;;;;;15.05;9.65;;;29.40;94.00;;;30.67;46.26;97584.44;5186773;28;20198;-61
2022/06/23 09:37:42;;;;;;;14.55;9.27;;;29.80;93.20;;;30.64;46.99;97579.25;5199719;28;20541;-60
2022/06/23 09:40:38;;;;;;;12.93;10.00;;;29.90;93.00;;;30.65;47.17;97578.38;5195866;28;20487;-62
2022/06/23 09:43:56;;;;;;;12.45;9.30;;;29.90;93.00;;;30.64;47.39;97581.03;5202454;28;20230;-60
2022/06/23 09:46:56;;;;;;;15.93;9.40;;;29.90;93.40;;;30.61;48.03;97586.41;5196639;28;20201;-57
2022/06/23 09:50:14;;;;;;;11.40;7.90;;;29.90;93.50;;;30.34;46.29;97573.06;5193254;28;20221;-60
2022/06/23 09:53:25;;;;;;;10.73;7.38;;;29.60;92.20;;;29.96;48.09;97577.53;5184024;28;20252;-60
2022/06/23 09:56:34;;;;;;;13.95;7.88;;;29.20;93.10;;;30.22;47.29;97573.38;5190677;28;20505;-59
2022/06/23 09:59:49;;;;;;;11.60;7.30;;;29.40;93.20;;;30.36;47.88;97571.25;5195652;28;20682;-60
2022/06/23 10:02:38;;;;;;;13.35;7.10;;;29.70;93.30;;;30.08;46.88;97577.19;5186607;28;20766;-60
2022/06/23 10:05:37;;;;;;;11.88;7.38;;;29.40;92.60;;;30.28;46.87;97565.31;5197708;28;20201;-61
2022/06/23 10:08:28;;;;;;;11.55;6.88;;;29.40;92.80;;;30.40;46.39;97574.66;5195148;28;20530;-60
2022/06/23 10:11:40;;;;;;;8.32;6.47;;;29.50;92.50;;;30.17;46.99;97570.81;5197222;28;20213;-61
2022/06/23 10:14:29;;;;;;;9.93;6.30;;;29.40;92.60;;;30.24;45.85;97561.00;5193318;28;20636;-60
2022/06/23 10:17:21;;;;;;;13.32;7.50;;;29.50;92.30;;;30.35;45.97;97558.94;5198534;28;20342;-60
2022/06/23 10:20:27;;;;;;;11.05;7.15;;;29.60;92.00;;;30.03;47.35;97558.00;5193877;28;20252;-62
2022/06/23 10:23:36;;;;;;;11.43;7.38;;;29.30;92.70;;;29.70;47.34;97561.47;5194414;28;20252;-60
2022/06/23 10:26:29;;;;;;;12.13;7.43;;;29.00;92.50;;;29.80;48.21;97555.06;5204442;28;20601;-59
2022/06/23 10:29:21;;;;;;;12.18;7.53;;;29.00;93.30;;;29.88;48.57;97557.53;5190472;28;20264;-60
2022/06/23 10:32:28;;;;;;;11.05;7.88;;;29.20;93.90;;;30.15;47.95;97555.94;5199494;28;20305;-59
2022/06/23 10:35:27;;;;;;;10.18;8.05;;;29.40;93.10;;;30.10;49.43;97561.31;5200328;28;20209;-60
2022/06/23 10:38:27;;;;;;;11.15;7.60;;;29.70;93.50;;;30.16;49.74;97547.13;5186611;28;20310;-61
2022/06/23 10:41:42;;;;;;;11.82;8.00;;;29.70;93.50;;;30.05;50.28;97553.56;5198446;28;20596;-60
2022/06/23 10:44:48;;;;;;;11.05;7.47;;;29.40;93.60;;;30.01;49.44;97540.47;5192591;28;20193;-60
2022/06/23 10:47:44;;;;;;;12.35;8.02;;;29.30;93.70;;;30.03;46.79;97542.19;5199803;28;20221;-60
2022/06/23 10:50:37;;;;;;;10.60;7.80;;;29.20;92.50;;;29.65;49.09;97540.50;5192064;28;20229;-61
2022/06/23 10:54:06;;;;;;;10.63;8.18;;;29.10;93.50;;;29.54;47.61;97540.72;5194708;28;20197;-61
2022/06/23 10:57:13;;;;;;;12.13;8.07;;;28.90;92.30;;;29.23;49.78;97539.72;5195685;28;20229;-60
2022/06/23 11:00:05;;;;;;;12.20;8.55;;;28.50;93.90;;;29.37;49.56;97537.63;5197204;28;20216;-60
2022/06/23 11:03:28;;;;;;;9.48;8.05;;;28.70;94.10;;;29.31;50.35;97532.50;5202416;28;20271;-61
2022/06/23 11:06:24;;;;;;;10.88;8.35;;;28.50;93.90;;;29.41;50.54;97526.13;5190254;28;20190;-59
2022/06/23 11:09:47;;;;;;;12.00;8.00;;;28.70;94.40;;;29.62;48.37;97525.66;5191809;28;20306;-59
2022/06/23 11:12:39;;;;;;;12.32;7.32;;;29.00;93.50;;;29.75;48.17;97520.06;5180342;28;20229;-60
2022/06/23 11:15:26;;;;;;;8.38;6.57;;;29.00;93.10;;;29.90;48.27;97517.03;5188727;28;20201;-60
2022/06/23 11:18:27;;;;;;;11.80;6.88;;;29.20;92.80;;;29.93;46.74;97510.81;5197222;28;20225;-60
2022/06/23 11:21:20;;;;;;;11.55;7.78;;;29.20;92.20;;;29.77;47.08;97507.72;5195776;28;20204;-60
2022/06/23 11:24:00;;;;;;;11.90;7.20;;;29.10;92.10;;;29.67;47.80;97495.66;5193638;28;20610;-58
2022/06/23 11:26:52;;;;;;;9.45;7.00;;;29.00;92.50;;;29.79;48.05;97496.25;5197143;28;20248;-59
2022/06/23 11:30:05;;;;;;;12.00;7.35;;;29.10;92.60;;;29.54;47.56;97490.69;5198425;28;20263;-58